createdAt,value
2017-11-21T00:00:22.970Z,31.37
2017-11-21T00:02:50.792Z,36.43
2017-11-21T00:05:18.218Z,31.47
2017-11-21T00:07:45.733Z,31.30
2017-11-21T00:10:13.159Z,31.43
2017-11-21T00:12:40.589Z,34.33
2017-11-21T00:15:08.895Z,31.40
2017-11-21T00:17:36.318Z,29.07
2017-11-21T00:20:03.746Z,29.53
2017-11-21T00:22:32.651Z,27.07
2017-11-21T00:25:00.469Z,28.53
2017-11-21T00:27:27.914Z,32.40
2017-11-21T00:29:55.596Z,27.13
2017-11-21T00:32:23.030Z,34.03
2017-11-21T00:34:50.461Z,31.37
2017-11-21T00:37:17.921Z,29.37
2017-11-21T00:39:45.355Z,32.83
2017-11-21T00:42:12.781Z,32.57
2017-11-21T00:44:40.619Z,30.60
2017-11-21T00:47:08.049Z,35.77
2017-11-21T00:49:35.481Z,33.07
2017-11-21T00:52:02.908Z,33.47
2017-11-21T00:54:30.347Z,33.73
2017-11-21T00:56:57.789Z,30.30
2017-11-21T00:59:25.230Z,28.73
2017-11-21T01:01:52.653Z,30.37
2017-11-21T01:04:20.130Z,31.50
2017-11-21T01:06:47.557Z,27.77
2017-11-21T01:09:14.994Z,27.27
2017-11-21T01:11:42.440Z,28.23
2017-11-21T01:14:09.866Z,28.00
2017-11-21T01:16:37.294Z,29.20
2017-11-21T01:19:04.726Z,39.10
2017-11-21T01:21:32.551Z,31.73
2017-11-21T01:24:00.005Z,35.57
2017-11-21T01:26:27.433Z,33.40
2017-11-21T01:28:54.864Z,30.03
2017-11-21T01:31:22.322Z,35.20
2017-11-21T01:33:49.757Z,31.80
2017-11-21T01:36:17.591Z,36.93
2017-11-21T01:38:45.226Z,32.03
2017-11-21T01:41:12.656Z,35.03
2017-11-21T01:43:40.091Z,31.20
2017-11-21T01:46:08.201Z,29.67
2017-11-21T01:48:35.635Z,33.37
2017-11-21T01:51:03.057Z,29.50
2017-11-21T01:53:30.899Z,32.30
2017-11-21T01:55:58.333Z,34.00
2017-11-21T01:58:25.764Z,29.57
2017-11-21T02:00:53.196Z,31.37
2017-11-21T02:03:21.018Z,31.57
2017-11-21T02:05:48.452Z,34.60
2017-11-21T02:08:15.881Z,37.97
2017-11-21T02:10:43.336Z,35.93
2017-11-21T02:13:10.763Z,36.47
2017-11-21T02:15:38.189Z,33.93
2017-11-21T02:18:05.645Z,34.27
2017-11-21T02:20:33.080Z,33.93
2017-11-21T02:23:00.514Z,36.17
2017-11-21T02:25:28.201Z,36.03
2017-11-21T02:27:55.633Z,33.40
2017-11-21T02:30:23.068Z,36.03
2017-11-21T02:32:50.929Z,31.80
2017-11-21T02:35:18.751Z,44.37
2017-11-21T02:37:46.182Z,37.43
2017-11-21T02:40:13.662Z,36.53
2017-11-21T02:42:41.089Z,33.43
2017-11-21T02:45:09.313Z,32.97
2017-11-21T02:47:36.745Z,31.63
2017-11-21T02:50:04.184Z,31.13
2017-11-21T02:52:31.605Z,33.30
2017-11-21T02:54:59.405Z,33.00
2017-11-21T02:57:26.837Z,33.50
2017-11-21T02:59:54.266Z,29.70
2017-11-21T03:02:22.105Z,34.57
2017-11-21T03:04:49.532Z,35.10
2017-11-21T03:07:16.971Z,35.37
2017-11-21T03:09:44.407Z,34.83
2017-11-21T03:12:11.833Z,37.10
2017-11-21T03:14:39.273Z,39.10
2017-11-21T03:17:06.729Z,31.37
2017-11-21T03:19:34.170Z,41.30
2017-11-21T03:22:13.333Z,36.67
2017-11-21T03:24:53.065Z,36.73
2017-11-21T03:27:31.641Z,35.47
2017-11-21T03:29:59.064Z,34.07
2017-11-21T03:32:26.501Z,35.60
2017-11-21T03:34:54.116Z,31.13
2017-11-21T03:37:21.544Z,37.17
2017-11-21T03:39:48.981Z,33.60
2017-11-21T03:42:17.926Z,34.20
2017-11-21T03:44:45.362Z,38.07
2017-11-21T03:47:12.798Z,31.63
2017-11-21T03:49:40.230Z,34.83
2017-11-21T03:52:08.060Z,32.93
2017-11-21T03:54:35.498Z,38.30
2017-11-21T03:57:03.274Z,35.37
2017-11-21T03:59:30.708Z,33.30
2017-11-21T04:01:58.134Z,37.67
2017-11-21T04:04:25.681Z,35.17
2017-11-21T04:06:53.509Z,38.13
2017-11-21T04:09:20.949Z,35.00
2017-11-21T04:11:48.677Z,33.63
2017-11-21T04:14:16.099Z,35.40
2017-11-21T04:16:43.526Z,38.70
2017-11-21T04:19:11.459Z,38.87
2017-11-21T04:21:38.884Z,41.17
2017-11-21T04:24:07.006Z,37.93
2017-11-21T04:26:34.442Z,39.67
2017-11-21T04:29:01.870Z,33.40
2017-11-21T04:31:29.717Z,33.10
2017-11-21T04:33:57.145Z,37.70
2017-11-21T04:36:24.585Z,34.70
2017-11-21T04:38:52.021Z,35.23
2017-11-21T04:41:19.445Z,37.83
2017-11-21T04:43:47.276Z,33.80
2017-11-21T04:46:14.733Z,40.17
2017-11-21T04:48:42.164Z,36.77
2017-11-21T04:51:09.598Z,36.20
2017-11-21T04:53:37.046Z,36.20
2017-11-21T04:56:04.473Z,34.33
2017-11-21T04:58:31.909Z,34.77
2017-11-21T05:00:59.354Z,37.97
2017-11-21T05:03:26.779Z,36.83
2017-11-21T05:05:54.216Z,34.57
2017-11-21T05:08:22.338Z,35.73
2017-11-21T05:10:49.773Z,38.20
2017-11-21T05:13:17.229Z,36.90
2017-11-21T05:15:44.655Z,42.57
2017-11-21T05:18:12.083Z,38.70
2017-11-21T05:20:39.517Z,41.00
2017-11-21T05:23:06.973Z,34.87
2017-11-21T05:25:34.401Z,40.30
2017-11-21T05:28:01.832Z,36.90
2017-11-21T05:30:29.294Z,40.20
2017-11-21T05:33:08.580Z,41.47
2017-11-21T05:35:36.033Z,42.20
2017-11-21T05:38:03.471Z,40.80
2017-11-21T05:40:31.002Z,44.10
2017-11-21T05:42:58.545Z,40.87
2017-11-21T05:45:26.383Z,40.20
2017-11-21T05:47:53.844Z,39.60
2017-11-21T05:50:21.280Z,42.27
2017-11-21T05:52:48.733Z,48.53
2017-11-21T05:55:16.160Z,51.63
2017-11-21T05:57:44.026Z,45.30
2017-11-21T06:00:11.473Z,37.20
2017-11-21T06:02:38.901Z,36.40
2017-11-21T06:05:06.364Z,38.77
2017-11-21T06:07:33.787Z,35.43
2017-11-21T06:10:01.853Z,45.70
2017-11-21T06:12:29.273Z,54.17
2017-11-21T06:14:56.741Z,36.03
2017-11-21T06:17:24.197Z,105.07
2017-11-21T06:19:51.600Z,41.70
2017-11-21T06:22:19.031Z,31.50
2017-11-21T06:24:47.157Z,29.00
2017-11-21T06:27:14.690Z,32.53
2017-11-21T06:29:42.111Z,31.33
2017-11-21T06:32:10.948Z,34.57
2017-11-21T06:34:38.381Z,36.90
2017-11-21T06:37:05.817Z,30.00
2017-11-21T06:39:33.665Z,35.70
2017-11-21T06:42:01.089Z,34.27
2017-11-21T06:44:28.532Z,35.80
2017-11-21T06:46:55.977Z,32.53
2017-11-21T06:49:23.417Z,82.97
2017-11-21T06:51:50.841Z,46.97
2017-11-21T06:54:18.666Z,30.00
2017-11-21T06:56:46.113Z,33.77
2017-11-21T06:59:13.564Z,32.17
2017-11-21T07:01:40.989Z,34.27
2017-11-21T07:04:08.425Z,33.27
2017-11-21T07:06:36.126Z,35.83
2017-11-21T07:09:03.549Z,33.10
2017-11-21T07:11:31.377Z,32.93
2017-11-21T07:13:59.332Z,42.93
2017-11-21T07:16:26.765Z,61.33
2017-11-21T07:18:54.203Z,29.93
2017-11-21T07:21:21.645Z,34.57
2017-11-21T07:23:49.467Z,32.40
2017-11-21T07:26:16.901Z,35.07
2017-11-21T07:28:44.358Z,39.73
2017-11-21T07:31:11.786Z,30.30
2017-11-21T07:33:39.213Z,34.23
2017-11-21T07:36:06.967Z,35.00
2017-11-21T07:38:34.393Z,46.00
2017-11-21T07:41:01.838Z,37.20
2017-11-21T07:43:29.930Z,35.37
2017-11-21T07:45:57.361Z,35.73
2017-11-21T07:48:24.789Z,36.07
2017-11-21T07:50:52.585Z,30.10
2017-11-21T07:53:20.836Z,31.10
2017-11-21T07:55:48.266Z,29.13
2017-11-21T07:58:16.334Z,39.00
2017-11-21T08:00:43.741Z,36.63
2017-11-21T08:03:11.501Z,38.17
2017-11-21T08:05:38.943Z,44.63
2017-11-21T08:08:06.377Z,36.07
2017-11-21T08:10:35.752Z,38.13
2017-11-21T08:13:03.181Z,33.97
2017-11-21T08:15:30.621Z,32.43
2017-11-21T08:17:58.050Z,35.53
2017-11-21T08:20:25.501Z,34.60
2017-11-21T08:22:52.930Z,32.73
2017-11-21T08:25:20.357Z,30.70
2017-11-21T08:27:48.053Z,30.23
2017-11-21T08:30:15.881Z,38.10
2017-11-21T08:32:43.314Z,31.33
2017-11-21T08:35:10.758Z,30.57
2017-11-21T08:37:38.181Z,32.40
2017-11-21T08:40:06.005Z,29.43
2017-11-21T08:42:33.609Z,32.03
2017-11-21T08:45:01.041Z,29.20
2017-11-21T08:47:28.466Z,28.70
2017-11-21T08:49:56.006Z,31.53
2017-11-21T08:52:23.437Z,22.90
2017-11-21T08:54:50.865Z,31.17
2017-11-21T08:57:18.398Z,28.73
2017-11-21T08:59:45.838Z,27.23
2017-11-21T09:02:13.262Z,28.23
2017-11-21T09:04:40.723Z,27.50
2017-11-21T09:07:08.157Z,26.73
2017-11-21T09:09:35.969Z,28.23
2017-11-21T09:12:03.430Z,28.87
2017-11-21T09:14:30.862Z,28.93
2017-11-21T09:16:58.282Z,24.53
2017-11-21T09:19:26.122Z,29.77
2017-11-21T09:21:53.539Z,28.30
2017-11-21T09:24:20.973Z,28.00
2017-11-21T09:26:48.405Z,31.80
2017-11-21T09:29:16.263Z,30.80
2017-11-21T09:31:43.685Z,25.20
2017-11-21T09:34:11.106Z,27.50
2017-11-21T09:36:38.559Z,35.03
2017-11-21T09:39:06.056Z,28.70
2017-11-21T09:41:33.488Z,25.27
2017-11-21T09:44:01.154Z,28.20
2017-11-21T09:46:29.866Z,21.97
2017-11-21T09:48:57.305Z,30.33
2017-11-21T09:51:24.757Z,29.87
2017-11-21T09:53:52.185Z,31.20
2017-11-21T09:56:19.731Z,27.13
2017-11-21T09:58:47.433Z,30.00
2017-11-21T10:01:14.869Z,25.77
2017-11-21T10:03:42.296Z,27.30
2017-11-21T10:06:10.143Z,29.43
2017-11-21T10:08:37.982Z,28.90
2017-11-21T10:11:05.418Z,25.43
2017-11-21T10:13:32.872Z,26.63
2017-11-21T10:16:00.454Z,29.03
2017-11-21T10:18:27.869Z,27.93
2017-11-21T10:20:55.321Z,27.70
2017-11-21T10:23:22.760Z,34.40
2017-11-21T10:25:50.194Z,27.83
2017-11-21T10:28:18.029Z,32.60
2017-11-21T10:30:45.462Z,24.20
2017-11-21T10:33:12.893Z,24.27
2017-11-21T10:35:40.424Z,25.70
2017-11-21T10:38:08.260Z,25.17
2017-11-21T10:40:35.690Z,25.50
2017-11-21T10:43:03.146Z,23.00
2017-11-21T10:45:30.578Z,25.90
2017-11-21T10:47:58.011Z,26.83
2017-11-21T10:50:25.942Z,24.40
2017-11-21T10:52:53.377Z,27.17
2017-11-21T10:55:20.822Z,23.87
2017-11-21T10:57:48.955Z,16.47
2017-11-21T11:00:16.779Z,22.10
2017-11-21T11:02:44.209Z,22.00
2017-11-21T11:05:11.650Z,18.30
2017-11-21T11:07:39.073Z,21.73
2017-11-21T11:10:06.902Z,17.73
2017-11-21T11:12:34.366Z,23.70
2017-11-21T11:15:01.805Z,22.03
2017-11-21T11:17:29.235Z,32.43
2017-11-21T11:19:56.674Z,41.57
2017-11-21T11:22:24.100Z,28.70
2017-11-21T11:24:51.549Z,23.93
2017-11-21T11:27:18.977Z,20.83
2017-11-21T11:29:46.407Z,20.10
2017-11-21T11:32:13.942Z,20.00
2017-11-21T11:34:41.770Z,17.53
2017-11-21T11:37:09.205Z,18.63
2017-11-21T11:39:36.653Z,21.47
2017-11-21T11:42:04.089Z,16.40
2017-11-21T11:44:31.512Z,17.33
2017-11-21T11:46:59.401Z,20.47
2017-11-21T11:49:27.217Z,20.33
2017-11-21T11:51:54.695Z,37.97
2017-11-21T11:54:22.133Z,26.43
2017-11-21T11:56:49.557Z,20.73
2017-11-21T11:59:16.997Z,18.50
2017-11-21T12:01:44.444Z,22.53
2017-11-21T12:04:11.878Z,20.30
2017-11-21T12:06:39.758Z,19.60
2017-11-21T12:09:07.190Z,21.47
2017-11-21T12:11:35.036Z,40.83
2017-11-21T12:14:02.478Z,29.23
2017-11-21T12:16:29.916Z,23.33
2017-11-21T12:18:57.357Z,21.60
2017-11-21T12:21:24.802Z,21.40
2017-11-21T12:23:52.281Z,17.97
2017-11-21T12:26:19.747Z,25.10
2017-11-21T12:28:47.175Z,21.03
2017-11-21T12:31:14.857Z,18.53
2017-11-21T12:33:42.290Z,23.27
2017-11-21T12:36:09.723Z,21.57
2017-11-21T12:38:37.567Z,22.20
2017-11-21T12:41:05.008Z,21.43
2017-11-21T12:43:32.434Z,25.60
2017-11-21T12:45:59.888Z,27.23
2017-11-21T12:48:27.314Z,19.03
2017-11-21T12:50:54.787Z,18.90
2017-11-21T12:53:22.226Z,19.50
2017-11-21T12:55:49.684Z,23.60
2017-11-21T12:58:17.163Z,18.50
2017-11-21T13:00:44.616Z,21.97
2017-11-21T13:03:12.055Z,20.10
2017-11-21T13:05:39.773Z,22.87
2017-11-21T13:08:07.215Z,22.50
2017-11-21T13:10:34.648Z,20.33
2017-11-21T13:13:02.106Z,17.97
2017-11-21T13:15:29.548Z,18.53
2017-11-21T13:17:56.974Z,20.30
2017-11-21T13:20:24.818Z,21.63
2017-11-21T13:22:52.247Z,20.47
2017-11-21T13:25:19.690Z,20.00
2017-11-21T13:27:47.145Z,23.93
2017-11-21T13:30:14.578Z,22.00
2017-11-21T13:32:42.019Z,17.60
2017-11-21T13:35:09.455Z,22.57
2017-11-21T13:37:37.301Z,21.87
2017-11-21T13:40:04.740Z,27.20
2017-11-21T13:42:32.284Z,19.77
2017-11-21T13:44:59.716Z,22.77
2017-11-21T13:47:27.148Z,19.53
2017-11-21T13:49:55.111Z,19.30
2017-11-21T13:52:22.952Z,19.73
2017-11-21T13:54:50.388Z,21.23
2017-11-21T13:57:17.853Z,21.67
2017-11-21T13:59:45.282Z,27.70
2017-11-21T14:02:12.714Z,21.37
2017-11-21T14:04:40.177Z,23.93
2017-11-21T14:07:07.614Z,24.40
2017-11-21T14:09:35.442Z,24.23
2017-11-21T14:12:02.891Z,24.00
2017-11-21T14:14:30.342Z,27.87
2017-11-21T14:16:57.757Z,24.97
2017-11-21T14:19:25.209Z,22.00
2017-11-21T14:21:52.634Z,20.97
2017-11-21T14:24:20.462Z,22.50
2017-11-21T14:26:47.920Z,21.03
2017-11-21T14:29:15.377Z,24.73
2017-11-21T14:31:42.791Z,17.40
2017-11-21T14:34:10.246Z,18.90
2017-11-21T14:36:37.671Z,25.10
2017-11-21T14:39:05.504Z,19.00
2017-11-21T14:41:33.244Z,20.50
2017-11-21T14:44:00.678Z,23.73
2017-11-21T14:46:28.117Z,22.97
2017-11-21T14:48:55.937Z,24.47
2017-11-21T14:51:23.374Z,22.67
2017-11-21T14:53:50.922Z,20.30
2017-11-21T14:56:18.350Z,21.33
2017-11-21T14:58:45.778Z,21.57
2017-11-21T15:01:13.313Z,20.43
2017-11-21T15:03:40.753Z,24.20
2017-11-21T15:06:08.182Z,20.60
2017-11-21T15:08:35.630Z,35.57
2017-11-21T15:11:03.441Z,23.33
2017-11-21T15:13:30.872Z,24.33
2017-11-21T15:15:58.317Z,25.40
2017-11-21T15:18:25.741Z,27.77
2017-11-21T15:20:53.561Z,26.67
2017-11-21T15:23:22.143Z,28.57
2017-11-21T15:25:49.568Z,22.40
2017-11-21T15:28:17.004Z,25.90
2017-11-21T15:30:44.941Z,25.07
2017-11-21T15:33:12.370Z,23.07
2017-11-21T15:35:39.800Z,28.50
2017-11-21T15:38:07.229Z,31.60
2017-11-21T15:40:35.050Z,31.47
2017-11-21T15:43:02.489Z,29.53
2017-11-21T15:45:29.919Z,28.87
2017-11-21T15:47:57.355Z,26.77
2017-11-21T15:50:25.183Z,26.70
2017-11-21T15:52:52.614Z,24.43
2017-11-21T15:55:20.213Z,29.70
2017-11-21T15:57:47.674Z,28.23
2017-11-21T16:00:17.062Z,31.70
2017-11-21T16:02:44.472Z,24.33
2017-11-21T16:05:12.130Z,27.40
2017-11-21T16:07:39.686Z,24.80
2017-11-21T16:10:07.106Z,25.70
2017-11-21T16:12:34.945Z,24.63
2017-11-21T16:15:02.372Z,27.77
2017-11-21T16:17:29.985Z,29.27
2017-11-21T16:19:58.229Z,27.53
2017-11-21T16:22:25.665Z,26.53
2017-11-21T16:24:53.102Z,26.80
2017-11-21T16:27:20.791Z,28.93
2017-11-21T16:29:48.341Z,25.60
2017-11-21T16:32:15.772Z,30.60
2017-11-21T16:34:43.256Z,28.40
2017-11-21T16:37:10.683Z,40.07
2017-11-21T16:39:38.117Z,24.03
2017-11-21T16:42:05.957Z,29.20
2017-11-21T16:44:33.411Z,24.67
2017-11-21T16:47:00.842Z,24.50
2017-11-21T16:49:28.276Z,23.97
2017-11-21T16:51:55.809Z,25.73
2017-11-21T16:54:23.338Z,20.67
2017-11-21T16:56:50.804Z,21.83
2017-11-21T16:59:18.893Z,22.47
2017-11-21T17:01:46.944Z,21.63
2017-11-21T17:04:14.377Z,30.20
2017-11-21T17:06:41.935Z,20.90
2017-11-21T17:09:09.382Z,20.30
2017-11-21T17:11:36.813Z,21.50
2017-11-21T17:14:04.286Z,20.60
2017-11-21T17:16:31.776Z,18.07
2017-11-21T17:18:59.614Z,17.53
2017-11-21T17:21:27.053Z,17.30
2017-11-21T17:23:54.510Z,19.03
2017-11-21T17:26:22.000Z,18.17
2017-11-21T17:28:49.409Z,16.10
2017-11-21T17:31:16.864Z,21.97
2017-11-21T17:33:44.303Z,14.63
2017-11-21T17:36:11.785Z,18.93
2017-11-21T17:38:39.228Z,15.70
2017-11-21T17:41:06.706Z,18.40
2017-11-21T17:43:34.142Z,18.30
2017-11-21T17:46:01.598Z,14.93
2017-11-21T17:48:29.045Z,13.50
2017-11-21T17:50:56.477Z,17.60
2017-11-21T17:53:23.922Z,18.57
2017-11-21T17:55:51.742Z,17.30
2017-11-21T17:58:19.170Z,14.90
2017-11-21T18:00:46.701Z,15.33
2017-11-21T18:03:14.236Z,16.37
2017-11-21T18:05:41.662Z,15.87
2017-11-21T18:08:09.250Z,15.23
2017-11-21T18:10:37.275Z,24.27
2017-11-21T18:13:04.702Z,15.60
2017-11-21T18:15:32.175Z,17.80
2017-11-21T18:17:59.603Z,18.40
2017-11-21T18:20:27.026Z,14.80
2017-11-21T18:22:54.689Z,32.90
2017-11-21T18:25:22.426Z,21.40
2017-11-21T18:27:50.389Z,18.23
2017-11-21T18:30:17.817Z,13.77
2017-11-21T18:32:57.578Z,13.67
2017-11-21T18:35:25.009Z,17.17
2017-11-21T18:37:52.434Z,16.50
2017-11-21T18:40:20.563Z,18.83
2017-11-21T18:42:47.981Z,14.13
2017-11-21T18:45:15.412Z,13.50
2017-11-21T18:47:43.243Z,14.87
2017-11-21T18:50:25.102Z,13.63
2017-11-21T18:52:52.559Z,15.00
2017-11-21T18:55:20.034Z,17.00
2017-11-21T18:57:47.738Z,14.50
2017-11-21T19:00:15.226Z,11.70
2017-11-21T19:02:42.681Z,13.80
2017-11-21T19:05:10.137Z,10.50
2017-11-21T19:07:37.586Z,14.93
2017-11-21T19:10:05.414Z,11.67
2017-11-21T19:12:32.858Z,10.90
2017-11-21T19:15:00.293Z,10.00
2017-11-21T19:17:27.770Z,11.97
2017-11-21T19:19:55.206Z,13.90
2017-11-21T19:22:22.637Z,13.63
2017-11-21T19:24:50.282Z,13.57
2017-11-21T19:27:17.939Z,13.80
2017-11-21T19:29:45.484Z,10.60
2017-11-21T19:32:13.313Z,11.90
2017-11-21T19:34:41.721Z,10.73
2017-11-21T19:40:12.401Z,21.10
2017-11-21T19:42:40.027Z,15.40
2017-11-21T19:45:07.858Z,11.33
2017-11-21T19:47:35.344Z,12.20
2017-11-21T19:50:02.814Z,12.47
2017-11-21T19:52:30.638Z,8.87
2017-11-21T19:54:58.081Z,12.80
2017-11-21T19:57:25.538Z,11.80
2017-11-21T19:59:53.298Z,11.70
2017-11-21T20:02:20.941Z,12.33
2017-11-21T20:04:48.388Z,11.80
2017-11-21T20:07:15.830Z,8.57
2017-11-21T20:09:43.280Z,14.53
2017-11-21T20:12:11.109Z,11.10
2017-11-21T20:14:38.555Z,11.03
2017-11-21T20:17:06.270Z,12.47
2017-11-21T20:19:33.706Z,11.40
2017-11-21T20:22:02.061Z,13.00
2017-11-21T20:24:29.502Z,14.70
2017-11-21T20:26:56.934Z,8.70
2017-11-21T20:29:24.398Z,13.37
2017-11-21T20:31:51.838Z,11.00
2017-11-21T20:34:19.282Z,11.90
2017-11-21T20:36:46.721Z,14.00
2017-11-21T20:39:14.580Z,10.27
2017-11-21T20:41:42.420Z,11.77
2017-11-21T20:44:09.853Z,9.60
2017-11-21T20:46:37.302Z,11.67
2017-11-21T20:49:04.797Z,32.50
2017-11-21T20:51:33.203Z,12.33
2017-11-21T20:54:01.191Z,9.83
2017-11-21T20:56:29.205Z,10.00
2017-11-21T20:58:56.629Z,12.40
2017-11-21T21:01:24.073Z,12.37
2017-11-21T21:03:51.524Z,10.77
2017-11-21T21:06:19.340Z,11.80
2017-11-21T21:08:47.678Z,11.10
2017-11-21T21:11:15.201Z,9.13
2017-11-21T21:13:42.903Z,11.67
2017-11-21T21:16:10.365Z,12.40
2017-11-21T21:18:38.051Z,9.67
2017-11-21T21:21:05.534Z,12.87
2017-11-21T21:23:32.964Z,10.63
2017-11-21T21:26:00.412Z,9.53
2017-11-21T21:28:28.238Z,11.00
2017-11-21T21:30:55.705Z,12.40
2017-11-21T21:33:23.175Z,10.63
2017-11-21T21:35:50.631Z,9.43
2017-11-21T21:38:18.290Z,11.33
2017-11-21T21:40:45.755Z,11.43
2017-11-21T21:43:13.590Z,12.00
2017-11-21T21:45:41.144Z,10.77
2017-11-21T21:48:08.598Z,9.93
2017-11-21T21:50:36.040Z,12.33
2017-11-21T21:53:03.490Z,12.10
2017-11-21T21:55:30.945Z,8.67
2017-11-21T21:57:58.559Z,10.50
2017-11-21T22:00:26.402Z,12.87
2017-11-21T22:02:54.174Z,8.70
2017-11-21T22:05:21.606Z,10.57
2017-11-21T22:07:49.050Z,9.50
2017-11-21T22:10:16.727Z,9.63
2017-11-21T22:12:44.166Z,7.60
2017-11-21T22:15:11.612Z,8.93
2017-11-21T22:17:39.088Z,7.90
2017-11-21T22:20:06.548Z,6.60
2017-11-21T22:22:34.072Z,8.90
2017-11-21T22:25:01.552Z,9.87
2017-11-21T22:27:28.985Z,8.30
2017-11-21T22:29:56.442Z,7.50
2017-11-21T22:32:23.894Z,7.00
2017-11-21T22:34:51.320Z,6.50
2017-11-21T22:37:19.185Z,6.77
2017-11-21T22:39:47.036Z,7.33
2017-11-21T22:42:14.456Z,4.33
2017-11-21T22:44:41.914Z,4.70
2017-11-21T22:47:09.342Z,6.07
2017-11-21T22:49:36.783Z,7.90
2017-11-21T22:52:04.324Z,7.00
2017-11-21T22:54:32.173Z,5.83
2017-11-21T22:56:59.576Z,6.83
2017-11-21T22:59:27.043Z,5.50
2017-11-21T23:01:54.489Z,5.70
2017-11-21T23:04:21.898Z,6.30
2017-11-21T23:06:49.712Z,5.87
2017-11-21T23:09:17.138Z,7.37
2017-11-21T23:11:44.921Z,6.00
2017-11-21T23:14:12.378Z,10.27
2017-11-21T23:16:39.797Z,5.33
2017-11-21T23:19:07.222Z,6.57
2017-11-21T23:21:34.648Z,6.93
2017-11-21T23:24:02.246Z,6.23
2017-11-21T23:26:29.700Z,7.00
2017-11-21T23:28:57.530Z,7.53
2017-11-21T23:31:24.941Z,12.60
2017-11-21T23:33:52.422Z,7.97
2017-11-21T23:36:19.861Z,8.27
2017-11-21T23:38:47.283Z,8.10
2017-11-21T23:41:15.117Z,9.77
2017-11-21T23:43:42.563Z,9.37
2017-11-21T23:46:09.985Z,10.80
2017-11-21T23:48:37.406Z,7.37
2017-11-21T23:51:04.829Z,23.57
2017-11-21T23:53:32.272Z,10.40
2017-11-21T23:55:59.692Z,14.57
2017-11-21T23:58:27.121Z,10.73
